createdAt,value
2016-09-01T00:00:22.350Z,1014.35
2016-09-01T00:01:22.413Z,1014.36
2016-09-01T00:02:22.233Z,1014.32
2016-09-01T00:03:22.168Z,1014.27
2016-09-01T00:04:22.106Z,1014.31
2016-09-01T00:05:22.046Z,1014.31
2016-09-01T00:06:21.986Z,1014.33
2016-09-01T00:07:21.926Z,1014.35
2016-09-01T00:08:21.865Z,1014.35
2016-09-01T00:09:21.803Z,1014.38
2016-09-01T00:10:21.747Z,1014.38
2016-09-01T00:11:21.684Z,1014.39
2016-09-01T00:12:21.622Z,1014.35
2016-09-01T00:13:21.561Z,1014.34
2016-09-01T00:14:21.513Z,1014.34
2016-09-01T00:15:21.439Z,1014.29
2016-09-01T00:16:21.380Z,1014.26
2016-09-01T00:17:21.319Z,1014.27
2016-09-01T00:18:21.258Z,1014.28
2016-09-01T00:19:21.198Z,1014.25
2016-09-01T00:20:21.141Z,1014.3
2016-09-01T00:21:21.077Z,1014.31
2016-09-01T00:22:21.017Z,1014.27
2016-09-01T00:23:20.956Z,1014.29
2016-09-01T00:24:20.897Z,1014.34
2016-09-01T00:25:20.836Z,1014.3
2016-09-01T00:26:20.772Z,1014.3
2016-09-01T00:27:20.713Z,1014.28
2016-09-01T00:28:20.652Z,1014.29
2016-09-01T00:29:20.592Z,1014.3
2016-09-01T00:30:20.533Z,1014.27
2016-09-01T00:31:20.471Z,1014.24
2016-09-01T00:32:20.408Z,1014.24
2016-09-01T00:33:20.348Z,1014.24
2016-09-01T00:34:20.287Z,1014.25
2016-09-01T00:35:20.233Z,1014.23
2016-09-01T00:36:20.167Z,1014.27
2016-09-01T00:37:20.108Z,1014.28
2016-09-01T00:38:20.045Z,1014.27
2016-09-01T00:39:20.021Z,1014.28
2016-09-01T00:40:19.924Z,1014.27
2016-09-01T00:41:19.863Z,1014.3
2016-09-01T00:42:19.804Z,1014.3
2016-09-01T00:43:19.742Z,1014.26
2016-09-01T00:44:19.683Z,1014.26
2016-09-01T00:45:19.622Z,1014.28
2016-09-01T00:46:19.559Z,1014.26
2016-09-01T00:47:19.498Z,1014.27
2016-09-01T00:48:19.438Z,1014.26
2016-09-01T00:49:19.379Z,1014.23
2016-09-01T00:50:19.319Z,1014.23
2016-09-01T00:51:19.256Z,1014.22
2016-09-01T00:52:19.194Z,1014.26
2016-09-01T00:53:19.134Z,1014.24
2016-09-01T00:54:19.278Z,1014.24
2016-09-01T00:55:19.014Z,1014.22
2016-09-01T00:56:18.954Z,1014.26
2016-09-01T00:57:18.892Z,1014.24
2016-09-01T00:58:18.832Z,1014.21
2016-09-01T00:59:18.770Z,1014.24
2016-09-01T01:00:18.709Z,1014.22
2016-09-01T01:01:18.650Z,1014.21
2016-09-01T01:02:18.589Z,1014.25
2016-09-01T01:03:18.527Z,1014.22
2016-09-01T01:04:18.466Z,1014.23
2016-09-01T01:05:18.407Z,1014.22
2016-09-01T01:06:18.346Z,1014.24
2016-09-01T01:07:18.285Z,1014.27
2016-09-01T01:08:18.229Z,1014.27
2016-09-01T01:09:18.164Z,1014.27
2016-09-01T01:10:18.104Z,1014.26
2016-09-01T01:11:18.043Z,1014.29
2016-09-01T01:12:17.994Z,1014.26
2016-09-01T01:13:17.920Z,1014.26
2016-09-01T01:14:17.859Z,1014.25
2016-09-01T01:15:17.797Z,1014.24
2016-09-01T01:16:17.738Z,1014.23
2016-09-01T01:17:17.677Z,1014.26
2016-09-01T01:18:17.616Z,1014.27
2016-09-01T01:19:17.556Z,1014.25
2016-09-01T01:20:17.493Z,1014.25
2016-09-01T01:21:17.493Z,1014.26
2016-09-01T01:22:17.373Z,1014.24
2016-09-01T01:23:17.313Z,1014.17
2016-09-01T01:24:17.253Z,1014.19
2016-09-01T01:25:17.195Z,1014.17
2016-09-01T01:26:17.129Z,1014.16
2016-09-01T01:27:17.070Z,1014.11
2016-09-01T01:28:17.008Z,1014.13
2016-09-01T01:29:16.951Z,1014.14
2016-09-01T01:30:16.888Z,1014.15
2016-09-01T01:31:16.824Z,1014.14
2016-09-01T01:32:16.766Z,1014.14
2016-09-01T01:33:16.703Z,1014.08
2016-09-01T01:34:16.643Z,1014.13
2016-09-01T01:35:16.885Z,1014.11
2016-09-01T01:36:16.539Z,1014.09
2016-09-01T01:37:16.461Z,1014.09
2016-09-01T01:38:16.401Z,1014.08
2016-09-01T01:39:16.338Z,1014.06
2016-09-01T01:40:16.279Z,1014.12
2016-09-01T01:41:16.420Z,1014.09
2016-09-01T01:42:16.154Z,1014.1
2016-09-01T01:43:16.096Z,1014.11
2016-09-01T01:44:16.035Z,1014.1
2016-09-01T01:45:15.975Z,1014.12
2016-09-01T01:46:15.912Z,1014.1
2016-09-01T01:47:15.852Z,1014.12
2016-09-01T01:48:15.791Z,1014.13
2016-09-01T01:49:15.731Z,1014.13
2016-09-01T01:50:15.671Z,1014.14
2016-09-01T01:51:15.613Z,1014.18
2016-09-01T01:52:15.548Z,1014.17
2016-09-01T01:53:15.488Z,1014.17
2016-09-01T01:54:15.426Z,1014.17
2016-09-01T01:55:15.366Z,1014.17
2016-09-01T01:56:15.305Z,1014.18
2016-09-01T01:57:15.245Z,1014.18
2016-09-01T01:58:15.185Z,1014.16
2016-09-01T01:59:15.124Z,1014.16
2016-09-01T02:00:15.063Z,1014.17
2016-09-01T02:01:15.003Z,1014.18
2016-09-01T02:02:14.941Z,1014.16
2016-09-01T02:03:14.881Z,1014.18
2016-09-01T02:04:14.818Z,1014.14
2016-09-01T02:05:14.758Z,1014.12
2016-09-01T02:06:14.697Z,1014.12
2016-09-01T02:07:14.638Z,1014.12
2016-09-01T02:08:14.585Z,1014.1
2016-09-01T02:09:14.515Z,1014.12
2016-09-01T02:10:14.462Z,1014.09
2016-09-01T02:11:14.395Z,1014.11
2016-09-01T02:12:14.333Z,1014.08
2016-09-01T02:13:14.272Z,1014.07
2016-09-01T02:14:14.210Z,1014.02
2016-09-01T02:15:14.149Z,1014.04
2016-09-01T02:16:14.091Z,1014.02
2016-09-01T02:17:14.030Z,1014.02
2016-09-01T02:18:13.968Z,1014.04
2016-09-01T02:19:13.905Z,1014.05
2016-09-01T02:20:13.845Z,1014.05
2016-09-01T02:21:13.786Z,1014.04
2016-09-01T02:22:13.725Z,1014.05
2016-09-01T02:23:13.663Z,1014.08
2016-09-01T02:24:13.602Z,1014.09
2016-09-01T02:25:13.763Z,1014.03
2016-09-01T02:26:13.479Z,1014.02
2016-09-01T02:27:13.420Z,1014.06
2016-09-01T02:28:13.359Z,1014.09
2016-09-01T02:29:13.297Z,1014.09
2016-09-01T02:30:13.237Z,1014.09
2016-09-01T02:31:13.175Z,1014.07
2016-09-01T02:32:13.115Z,1014.09
2016-09-01T02:33:13.054Z,1014.08
2016-09-01T02:34:12.994Z,1014.09
2016-09-01T02:35:12.934Z,1014.08
2016-09-01T02:36:12.874Z,1014.09
2016-09-01T02:37:12.811Z,1014.07
2016-09-01T02:38:12.750Z,1014.09
2016-09-01T02:39:12.691Z,1014.04
2016-09-01T02:40:12.627Z,1014.05
2016-09-01T02:41:12.567Z,1014.06
2016-09-01T02:42:12.505Z,1014.04
2016-09-01T02:43:12.448Z,1014.01
2016-09-01T02:44:12.387Z,1014.04
2016-09-01T02:45:12.324Z,1014.02
2016-09-01T02:46:12.263Z,1014.01
2016-09-01T02:47:12.202Z,1014.03
2016-09-01T02:48:12.141Z,1014.01
2016-09-01T02:49:12.082Z,1014.05
2016-09-01T02:50:12.021Z,1014.03
2016-09-01T02:51:11.958Z,1014.05
2016-09-01T02:52:11.897Z,1014.04
2016-09-01T02:53:11.836Z,1014.06
2016-09-01T02:54:11.776Z,1014.06
2016-09-01T02:55:11.715Z,1014.05
2016-09-01T02:56:11.654Z,1014.1
2016-09-01T02:57:11.594Z,1014.1
2016-09-01T02:58:11.532Z,1014.08
2016-09-01T02:59:11.472Z,1014.08
2016-09-01T03:00:11.412Z,1014.04
2016-09-01T03:01:11.351Z,1014.09
2016-09-01T03:02:11.292Z,1014.07
2016-09-01T03:03:11.227Z,1014.07
2016-09-01T03:04:11.167Z,1014.06
2016-09-01T03:05:11.107Z,1014.06
2016-09-01T03:06:11.045Z,1014.04
2016-09-01T03:07:10.985Z,1014.04
2016-09-01T03:08:10.925Z,1014.01
2016-09-01T03:09:10.864Z,1013.99
2016-09-01T03:10:10.801Z,1013.99
2016-09-01T03:11:10.740Z,1013.95
2016-09-01T03:12:10.679Z,1014
2016-09-01T03:13:10.617Z,1013.99
2016-09-01T03:14:10.559Z,1013.98
2016-09-01T03:15:10.512Z,1013.96
2016-09-01T03:16:10.437Z,1013.97
2016-09-01T03:17:10.375Z,1013.96
2016-09-01T03:18:10.332Z,1013.93
2016-09-01T03:19:10.253Z,1013.91
2016-09-01T03:20:10.194Z,1013.96
2016-09-01T03:21:10.134Z,1013.94
2016-09-01T03:22:10.071Z,1013.93
2016-09-01T03:23:10.010Z,1013.89
2016-09-01T03:24:09.947Z,1013.91
2016-09-01T03:25:10.180Z,1013.91
2016-09-01T03:26:09.827Z,1013.92
2016-09-01T03:27:09.765Z,1013.87
2016-09-01T03:28:09.705Z,1013.86
2016-09-01T03:29:09.643Z,1013.83
2016-09-01T03:30:09.582Z,1013.85
2016-09-01T03:31:09.524Z,1013.82
2016-09-01T03:32:09.461Z,1013.85
2016-09-01T03:33:09.401Z,1013.82
2016-09-01T03:34:09.342Z,1013.87
2016-09-01T03:35:09.277Z,1013.86
2016-09-01T03:36:09.217Z,1013.84
2016-09-01T03:37:09.158Z,1013.84
2016-09-01T03:38:09.096Z,1013.84
2016-09-01T03:39:09.033Z,1013.79
2016-09-01T03:40:08.973Z,1013.83
2016-09-01T03:41:08.914Z,1013.82
2016-09-01T03:42:08.850Z,1013.79
2016-09-01T03:43:08.790Z,1013.81
2016-09-01T03:44:08.731Z,1013.79
2016-09-01T03:45:08.668Z,1013.78
2016-09-01T03:46:08.607Z,1013.77
2016-09-01T03:47:08.547Z,1013.78
2016-09-01T03:48:08.486Z,1013.78
2016-09-01T03:49:08.425Z,1013.79
2016-09-01T03:50:08.362Z,1013.76
2016-09-01T03:51:08.301Z,1013.72
2016-09-01T03:52:08.243Z,1013.75
2016-09-01T03:53:08.184Z,1013.71
2016-09-01T03:54:08.118Z,1013.77
2016-09-01T03:55:08.063Z,1013.71
2016-09-01T03:56:07.997Z,1013.72
2016-09-01T03:57:07.936Z,1013.76
2016-09-01T03:58:07.874Z,1013.77
2016-09-01T03:59:07.814Z,1013.75
2016-09-01T04:00:07.752Z,1013.77
2016-09-01T04:01:07.690Z,1013.78
2016-09-01T04:02:07.630Z,1013.78
2016-09-01T04:03:07.569Z,1013.83
2016-09-01T04:04:07.509Z,1013.82
2016-09-01T04:05:07.446Z,1013.81
2016-09-01T04:06:07.384Z,1013.8
2016-09-01T04:07:07.325Z,1013.85
2016-09-01T04:08:07.263Z,1013.88
2016-09-01T04:09:07.204Z,1013.84
2016-09-01T04:10:07.150Z,1013.85
2016-09-01T04:11:07.081Z,1013.87
2016-09-01T04:12:07.023Z,1013.89
2016-09-01T04:13:06.959Z,1013.87
2016-09-01T04:14:06.899Z,1013.9
2016-09-01T04:15:06.835Z,1013.89
2016-09-01T04:16:06.775Z,1013.87
2016-09-01T04:17:06.715Z,1013.88
2016-09-01T04:18:06.653Z,1013.87
2016-09-01T04:19:06.593Z,1013.89
2016-09-01T04:20:06.696Z,1013.89
2016-09-01T04:21:06.470Z,1013.86
2016-09-01T04:22:06.410Z,1013.89
2016-09-01T04:23:06.350Z,1013.85
2016-09-01T04:24:06.287Z,1013.86
2016-09-01T04:25:06.226Z,1013.87
2016-09-01T04:26:06.164Z,1013.87
2016-09-01T04:27:06.104Z,1013.89
2016-09-01T04:28:06.045Z,1013.86
2016-09-01T04:29:05.982Z,1013.89
2016-09-01T04:30:05.921Z,1013.91
2016-09-01T04:31:05.860Z,1013.9
2016-09-01T04:32:05.801Z,1013.91
2016-09-01T04:33:05.745Z,1013.91
2016-09-01T04:34:05.681Z,1013.98
2016-09-01T04:35:05.615Z,1014.05
2016-09-01T04:36:05.556Z,1014.06
2016-09-01T04:37:05.498Z,1013.98
2016-09-01T04:38:05.433Z,1014.03
2016-09-01T04:39:05.372Z,1014.02
2016-09-01T04:40:05.311Z,1014.03
2016-09-01T04:41:05.249Z,1013.98
2016-09-01T04:42:05.189Z,1014.01
2016-09-01T04:43:05.128Z,1013.98
2016-09-01T04:44:05.067Z,1014.02
2016-09-01T04:45:05.005Z,1014.06
2016-09-01T04:46:04.944Z,1014.1
2016-09-01T04:47:04.884Z,1014.11
2016-09-01T04:48:04.821Z,1014.14
2016-09-01T04:49:04.762Z,1014.15
2016-09-01T04:50:04.700Z,1014.16
2016-09-01T04:51:04.641Z,1014.16
2016-09-01T04:52:04.579Z,1014.13
2016-09-01T04:53:04.516Z,1014.16
2016-09-01T04:54:04.458Z,1014.16
2016-09-01T04:55:04.395Z,1014.18
2016-09-01T04:56:04.334Z,1014.18
2016-09-01T04:57:04.276Z,1014.2
2016-09-01T04:58:04.219Z,1014.19
2016-09-01T04:59:04.151Z,1014.2
2016-09-01T05:00:04.091Z,1014.17
2016-09-01T05:01:04.030Z,1014.23
2016-09-01T05:02:03.971Z,1014.24
2016-09-01T05:03:03.923Z,1014.25
2016-09-01T05:04:03.847Z,1014.24
2016-09-01T05:05:03.786Z,1014.25
2016-09-01T05:06:03.726Z,1014.25
2016-09-01T05:07:03.663Z,1014.28
2016-09-01T05:08:03.602Z,1014.28
2016-09-01T05:09:03.543Z,1014.31
2016-09-01T05:10:03.483Z,1014.34
2016-09-01T05:11:03.419Z,1014.31
2016-09-01T05:12:03.358Z,1014.28
2016-09-01T05:13:03.297Z,1014.34
2016-09-01T05:14:03.236Z,1014.3
2016-09-01T05:15:03.175Z,1014.3
2016-09-01T05:16:03.115Z,1014.38
2016-09-01T05:17:03.054Z,1014.38
2016-09-01T05:18:02.994Z,1014.35
2016-09-01T05:19:02.931Z,1014.37
2016-09-01T05:20:02.877Z,1014.38
2016-09-01T05:21:02.810Z,1014.39
2016-09-01T05:22:02.749Z,1014.44
2016-09-01T05:23:02.687Z,1014.41
2016-09-01T05:24:02.627Z,1014.44
2016-09-01T05:25:02.566Z,1014.5
2016-09-01T05:26:02.533Z,1014.5
2016-09-01T05:27:02.443Z,1014.47
2016-09-01T05:28:02.381Z,1014.46
2016-09-01T05:29:02.320Z,1014.53
2016-09-01T05:30:02.260Z,1014.52
2016-09-01T05:31:02.199Z,1014.52
2016-09-01T05:32:02.138Z,1014.54
2016-09-01T05:33:02.076Z,1014.56
2016-09-01T05:34:02.019Z,1014.56
2016-09-01T05:35:01.955Z,1014.61
2016-09-01T05:36:01.895Z,1014.63
2016-09-01T05:37:01.848Z,1014.63
2016-09-01T05:38:01.771Z,1014.62
2016-09-01T05:39:01.711Z,1014.62
2016-09-01T05:40:01.650Z,1014.65
2016-09-01T05:41:01.589Z,1014.63
2016-09-01T05:42:01.531Z,1014.64
2016-09-01T05:43:01.466Z,1014.66
2016-09-01T05:44:01.925Z,1014.61
2016-09-01T05:45:01.350Z,1014.62
2016-09-01T05:46:01.291Z,1014.64
2016-09-01T05:47:01.223Z,1014.65
2016-09-01T05:48:01.169Z,1014.66
2016-09-01T05:49:01.103Z,1014.62
2016-09-01T05:50:01.039Z,1014.63
2016-09-01T05:51:00.987Z,1014.61
2016-09-01T05:52:00.934Z,1014.64
2016-09-01T05:53:00.856Z,1014.64
2016-09-01T05:54:00.793Z,1014.64
2016-09-01T05:55:00.734Z,1014.67
2016-09-01T05:56:00.674Z,1014.61
2016-09-01T05:57:00.610Z,1014.64
2016-09-01T05:58:01.753Z,1014.66
2016-09-01T05:59:00.489Z,1014.65
2016-09-01T06:00:00.431Z,1014.67
2016-09-01T06:01:00.366Z,1014.69
2016-09-01T06:02:00.306Z,1014.68
2016-09-01T06:03:00.244Z,1014.7
2016-09-01T06:04:00.190Z,1014.66
2016-09-01T06:05:00.133Z,1014.68
2016-09-01T06:06:00.063Z,1014.69
2016-09-01T06:07:00.002Z,1014.7
2016-09-01T06:07:59.942Z,1014.73
2016-09-01T06:08:59.878Z,1014.74
2016-09-01T06:09:59.830Z,1014.76
2016-09-01T06:10:59.757Z,1014.76
2016-09-01T06:11:59.695Z,1014.78
2016-09-01T06:12:59.634Z,1014.77
2016-09-01T06:13:59.851Z,1014.8
2016-09-01T06:14:59.513Z,1014.78
2016-09-01T06:15:59.456Z,1014.79
2016-09-01T06:16:59.394Z,1014.82
2016-09-01T06:17:59.331Z,1014.81
2016-09-01T06:18:59.269Z,1014.84
2016-09-01T06:19:59.207Z,1014.83
2016-09-01T06:20:59.148Z,1014.89
2016-09-01T06:21:59.089Z,1014.92
2016-09-01T06:22:59.029Z,1014.94
2016-09-01T06:23:58.967Z,1014.91
2016-09-01T06:24:58.902Z,1014.92
2016-09-01T06:25:58.841Z,1014.9
2016-09-01T06:26:58.779Z,1014.89
2016-09-01T06:27:58.719Z,1014.87
2016-09-01T06:28:58.657Z,1014.91
2016-09-01T06:29:58.597Z,1014.96
2016-09-01T06:30:58.536Z,1014.94
2016-09-01T06:31:58.474Z,1014.97
2016-09-01T06:32:58.416Z,1015
2016-09-01T06:33:58.353Z,1015
2016-09-01T06:34:58.292Z,1015.01
2016-09-01T06:35:58.230Z,1015
2016-09-01T06:36:58.170Z,1015.02
2016-09-01T06:37:58.108Z,1015.03
2016-09-01T06:38:58.048Z,1015
2016-09-01T06:39:57.986Z,1015.03
2016-09-01T06:40:57.925Z,1015.03
2016-09-01T06:41:57.864Z,1015.04
2016-09-01T06:42:57.803Z,1015.04
2016-09-01T06:43:57.743Z,1015.06
2016-09-01T06:44:57.686Z,1015.05
2016-09-01T06:45:57.628Z,1015.08
2016-09-01T06:46:57.561Z,1015.09
2016-09-01T06:47:57.503Z,1015.09
2016-09-01T06:48:57.438Z,1015.1
2016-09-01T06:49:57.378Z,1015.12
2016-09-01T06:50:57.315Z,1015.13
2016-09-01T06:51:57.262Z,1015.1
2016-09-01T06:52:57.199Z,1015.11
2016-09-01T06:53:57.135Z,1015.11
2016-09-01T06:54:57.073Z,1015.13
2016-09-01T06:55:57.010Z,1015.1
2016-09-01T06:56:56.953Z,1015.15
2016-09-01T06:57:56.895Z,1015.12
2016-09-01T06:58:56.858Z,1015.14
2016-09-01T06:59:56.768Z,1015.11
2016-09-01T07:00:56.706Z,1015.15
2016-09-01T07:01:56.649Z,1015.2
2016-09-01T07:02:56.588Z,1015.17
2016-09-01T07:03:56.524Z,1015.18
2016-09-01T07:04:56.464Z,1015.19
2016-09-01T07:05:56.401Z,1015.19
2016-09-01T07:06:56.341Z,1015.19
2016-09-01T07:07:56.278Z,1015.15
2016-09-01T07:08:56.219Z,1015.12
2016-09-01T07:09:56.159Z,1015.13
2016-09-01T07:10:56.097Z,1015.15
2016-09-01T07:11:56.039Z,1015.15
2016-09-01T07:12:55.977Z,1015.16
2016-09-01T07:13:55.913Z,1015.17
2016-09-01T07:14:55.852Z,1015.16
2016-09-01T07:15:55.791Z,1015.19
2016-09-01T07:16:55.730Z,1015.19
2016-09-01T07:17:55.675Z,1015.18
2016-09-01T07:18:55.608Z,1015.2
2016-09-01T07:19:55.552Z,1015.2
2016-09-01T07:20:55.486Z,1015.21
2016-09-01T07:21:55.426Z,1015.27
2016-09-01T07:22:55.364Z,1015.25
2016-09-01T07:23:55.306Z,1015.25
2016-09-01T07:24:55.243Z,1015.22
2016-09-01T07:25:55.189Z,1015.24
2016-09-01T07:26:55.122Z,1015.24
2016-09-01T07:27:55.061Z,1015.21
2016-09-01T07:28:54.998Z,1015.2
2016-09-01T07:29:54.938Z,1015.21
2016-09-01T07:30:54.891Z,1015.23
2016-09-01T07:31:54.819Z,1015.22
2016-09-01T07:32:54.755Z,1015.21
2016-09-01T07:33:54.695Z,1015.22
2016-09-01T07:34:54.634Z,1015.25
2016-09-01T07:35:54.572Z,1015.24
2016-09-01T07:36:54.518Z,1015.25
2016-09-01T07:37:54.449Z,1015.25
2016-09-01T07:38:54.390Z,1015.25
2016-09-01T07:39:54.329Z,1015.24
2016-09-01T07:40:54.268Z,1015.26
2016-09-01T07:41:54.205Z,1015.29
2016-09-01T07:42:54.145Z,1015.25
2016-09-01T07:43:54.089Z,1015.23
2016-09-01T07:44:54.041Z,1015.26
2016-09-01T07:45:53.963Z,1015.27
2016-09-01T07:46:53.918Z,1015.23
2016-09-01T07:47:53.842Z,1015.25
2016-09-01T07:48:53.782Z,1015.26
2016-09-01T07:49:53.725Z,1015.27
2016-09-01T07:50:53.662Z,1015.24
2016-09-01T07:51:54.268Z,1015.28
2016-09-01T07:52:53.539Z,1015.29
2016-09-01T07:53:53.477Z,1015.29
2016-09-01T07:54:53.416Z,1015.31
2016-09-01T07:55:53.356Z,1015.31
2016-09-01T07:56:53.293Z,1015.3
2016-09-01T07:57:53.233Z,1015.31
2016-09-01T07:58:53.176Z,1015.3
2016-09-01T07:59:53.117Z,1015.32
2016-09-01T08:00:53.058Z,1015.31
2016-09-01T08:01:52.998Z,1015.34
2016-09-01T08:02:52.931Z,1015.36
2016-09-01T08:03:52.871Z,1015.36
2016-09-01T08:04:52.833Z,1015.35
2016-09-01T08:05:52.748Z,1015.41
2016-09-01T08:06:52.689Z,1015.36
2016-09-01T08:07:52.625Z,1015.39
2016-09-01T08:08:52.565Z,1015.4
2016-09-01T08:09:52.505Z,1015.43
2016-09-01T08:10:52.452Z,1015.44
2016-09-01T08:11:52.392Z,1015.46
2016-09-01T08:12:52.323Z,1015.47
2016-09-01T08:13:52.259Z,1015.48
2016-09-01T08:14:52.215Z,1015.41
2016-09-01T08:15:52.154Z,1015.46
2016-09-01T08:16:52.112Z,1015.48
2016-09-01T08:17:52.032Z,1015.47
2016-09-01T08:18:51.973Z,1015.49
2016-09-01T08:19:51.897Z,1015.5
2016-09-01T08:20:51.841Z,1015.47
2016-09-01T08:21:51.809Z,1015.49
2016-09-01T08:22:51.753Z,1015.51
2016-09-01T08:23:51.662Z,1015.53
2016-09-01T08:24:51.595Z,1015.51
2016-09-01T08:25:51.533Z,1015.51
2016-09-01T08:26:51.473Z,1015.53
2016-09-01T08:27:51.415Z,1015.54
2016-09-01T08:28:51.354Z,1015.61
2016-09-01T08:29:51.293Z,1015.58
2016-09-01T08:30:51.235Z,1015.54
2016-09-01T08:31:51.171Z,1015.56
2016-09-01T08:32:51.116Z,1015.58
2016-09-01T08:33:51.054Z,1015.59
2016-09-01T08:34:50.990Z,1015.58
2016-09-01T08:35:50.928Z,1015.58
2016-09-01T08:36:50.869Z,1015.57
2016-09-01T08:37:50.807Z,1015.56
2016-09-01T08:38:50.757Z,1015.52
2016-09-01T08:39:50.694Z,1015.58
2016-09-01T08:40:50.638Z,1015.61
2016-09-01T08:41:50.568Z,1015.6
2016-09-01T08:42:50.506Z,1015.56
2016-09-01T08:43:50.452Z,1015.59
2016-09-01T08:44:50.385Z,1015.58
2016-09-01T08:45:50.334Z,1015.59
2016-09-01T08:46:50.290Z,1015.58
2016-09-01T08:47:50.203Z,1015.53
2016-09-01T08:48:50.155Z,1015.55
2016-09-01T08:49:50.100Z,1015.55
2016-09-01T08:50:50.026Z,1015.57
2016-09-01T08:51:49.995Z,1015.57
2016-09-01T08:52:49.906Z,1015.58
2016-09-01T08:53:49.842Z,1015.58
2016-09-01T08:54:49.779Z,1015.56
2016-09-01T08:55:49.724Z,1015.57
2016-09-01T08:56:49.665Z,1015.54
2016-09-01T08:57:49.596Z,1015.53
2016-09-01T08:58:49.547Z,1015.49
2016-09-01T09:00:49.416Z,1015.5
2016-09-01T09:01:49.367Z,1015.5
2016-09-01T09:02:49.300Z,1015.47
2016-09-01T09:03:49.242Z,1015.5
2016-09-01T09:04:49.174Z,1015.51
2016-09-01T09:05:49.115Z,1015.54
2016-09-01T09:06:49.132Z,1015.55
2016-09-01T09:07:48.996Z,1015.54
2016-09-01T09:08:48.944Z,1015.58
2016-09-01T09:09:48.872Z,1015.57
2016-09-01T09:10:48.817Z,1015.57
2016-09-01T09:11:48.758Z,1015.6
2016-09-01T09:12:48.690Z,1015.59
2016-09-01T09:13:48.639Z,1015.61
2016-09-01T09:14:48.579Z,1015.56
2016-09-01T09:15:48.512Z,1015.59
2016-09-01T09:16:48.448Z,1015.6
2016-09-01T09:17:48.390Z,1015.6
2016-09-01T09:18:48.334Z,1015.6
2016-09-01T09:19:48.267Z,1015.65
2016-09-01T09:20:48.218Z,1015.67
2016-09-01T09:21:48.148Z,1015.65
2016-09-01T09:22:48.086Z,1015.65
2016-09-01T09:23:48.027Z,1015.65
2016-09-01T09:24:47.968Z,1015.67
2016-09-01T09:25:47.905Z,1015.65
2016-09-01T09:26:47.845Z,1015.65
2016-09-01T09:27:47.787Z,1015.59
2016-09-01T09:28:47.723Z,1015.55
2016-09-01T09:29:47.670Z,1015.56
2016-09-01T09:30:47.604Z,1015.56
2016-09-01T09:31:47.543Z,1015.59
2016-09-01T09:32:47.484Z,1015.57
2016-09-01T09:33:47.424Z,1015.59
2016-09-01T09:34:47.364Z,1015.56
2016-09-01T09:35:47.357Z,1015.56
2016-09-01T09:36:47.255Z,1015.61
2016-09-01T09:37:47.182Z,1015.6
2016-09-01T09:38:47.123Z,1015.59
2016-09-01T09:39:47.064Z,1015.58
2016-09-01T09:40:47.001Z,1015.57
2016-09-01T09:41:46.942Z,1015.58
2016-09-01T09:42:46.883Z,1015.55
2016-09-01T09:43:46.834Z,1015.54
2016-09-01T09:44:46.761Z,1015.56
2016-09-01T09:45:46.713Z,1015.53
2016-09-01T09:46:46.671Z,1015.53
2016-09-01T09:47:46.696Z,1015.53
2016-09-01T09:48:46.521Z,1015.52
2016-09-01T09:49:46.467Z,1015.47
2016-09-01T09:50:46.408Z,1015.53
2016-09-01T09:51:46.345Z,1015.51
2016-09-01T09:52:46.281Z,1015.49
2016-09-01T09:53:46.219Z,1015.47
2016-09-01T09:54:46.159Z,1015.46
2016-09-01T09:55:46.101Z,1015.46
2016-09-01T09:56:46.039Z,1015.48
2016-09-01T09:57:45.982Z,1015.48
2016-09-01T09:58:45.923Z,1015.45
2016-09-01T09:59:45.863Z,1015.41
2016-09-01T10:00:45.812Z,1015.43
2016-09-01T10:01:45.754Z,1015.4
2016-09-01T10:02:45.682Z,1015.42
2016-09-01T10:03:45.617Z,1015.41
2016-09-01T10:04:45.560Z,1015.43
2016-09-01T10:05:45.504Z,1015.42
2016-09-01T10:06:45.437Z,1015.39
2016-09-01T10:07:45.386Z,1015.39
2016-09-01T10:08:45.323Z,1015.38
2016-09-01T10:09:45.257Z,1015.39
2016-09-01T10:10:45.196Z,1015.4
2016-09-01T10:11:45.137Z,1015.37
2016-09-01T10:12:45.089Z,1015.33
2016-09-01T10:13:45.024Z,1015.31
2016-09-01T10:14:44.955Z,1015.32
2016-09-01T10:15:44.894Z,1015.32
2016-09-01T10:16:44.842Z,1015.27
2016-09-01T10:17:44.774Z,1015.25
2016-09-01T10:18:44.715Z,1015.21
2016-09-01T10:19:44.653Z,1015.21
2016-09-01T10:20:44.594Z,1015.24
2016-09-01T10:21:44.546Z,1015.23
2016-09-01T10:22:44.472Z,1015.23
2016-09-01T10:23:44.411Z,1015.19
2016-09-01T10:24:44.367Z,1015.17
2016-09-01T10:25:44.297Z,1015.15
2016-09-01T10:26:44.232Z,1015.17
2016-09-01T10:27:44.171Z,1015.18
2016-09-01T10:28:44.109Z,1015.21
2016-09-01T10:29:44.051Z,1015.22
2016-09-01T10:30:43.991Z,1015.19
2016-09-01T10:31:44.144Z,1015.21
2016-09-01T10:32:43.869Z,1015.2
2016-09-01T10:33:43.817Z,1015.25
2016-09-01T10:34:43.755Z,1015.22
2016-09-01T10:35:43.697Z,1015.21
2016-09-01T10:36:43.634Z,1015.19
2016-09-01T10:37:43.575Z,1015.16
2016-09-01T10:38:43.524Z,1015.18
2016-09-01T10:39:43.449Z,1015.18
2016-09-01T10:40:43.395Z,1015.13
2016-09-01T10:41:43.330Z,1015.18
2016-09-01T10:42:43.277Z,1015.2
2016-09-01T10:43:43.208Z,1015.24
2016-09-01T10:44:43.151Z,1015.2
2016-09-01T10:45:45.501Z,1015.19
2016-09-01T10:46:43.039Z,1015.2
2016-09-01T10:47:42.968Z,1015.17
2016-09-01T10:48:42.910Z,1015.19
2016-09-01T10:49:42.863Z,1015.21
2016-09-01T10:50:42.790Z,1015.17
2016-09-01T10:51:42.727Z,1015.15
2016-09-01T10:52:42.673Z,1015.17
2016-09-01T10:53:42.607Z,1015.19
2016-09-01T10:54:42.546Z,1015.16
2016-09-01T10:55:42.486Z,1015.15
2016-09-01T10:56:42.428Z,1015.15
2016-09-01T10:57:42.366Z,1015.15
2016-09-01T10:58:42.308Z,1015.11
2016-09-01T10:59:42.263Z,1015.12
2016-09-01T11:00:42.189Z,1015.17
2016-09-01T11:01:42.127Z,1015.15
2016-09-01T11:02:42.066Z,1015.13
2016-09-01T11:03:42.006Z,1015.14
2016-09-01T11:04:41.949Z,1015.17
2016-09-01T11:05:41.886Z,1015.15
2016-09-01T11:06:41.838Z,1015.14
2016-09-01T11:07:41.765Z,1015.17
2016-09-01T11:08:41.706Z,1015.19
2016-09-01T11:09:41.652Z,1015.19
